De Sui — BSFU — position and weather

sailwx.info

Track history (hours):
 
Tides and Currents Weather Stations Pressure Air Temp Water Temp Dewpoint Dewpoint Depression Visibility Wind Speed Wind Dir Waves Ship Positions

De Sui

Last reported at 2017-Sep-07 17:12 UTC. Time now 2017-Oct-19 15:09 UTC.
Position N 22°31' E 113°44'.
Warning: this ship's position is 41 days out of date.

Length 65 m; draft 4.8 m.

Type: Tug. MMSI: 413070000.

Date/timePositionNaut miles runAvg speedWind from/ knotsBaromVisibWave heightAir tempDewpointWater temp
2017-Sep-07 17:12N 22°31' E 113°44'3 5.0
2017-Sep-07 16:35N 22°34' E 113°43'0 4.6
2017-Sep-07 16:30N 22°34' E 113°43'3 5.0
2017-Sep-07 15:59N 22°36' E 113°42'3 5.3
2017-Sep-07 15:31N 22°39' E 113°42'2 4.5
2017-Sep-07 15:00N 22°41' E 113°41'2 4.1
2017-Sep-07 14:30N 22°43' E 113°40'2 4.1
2017-Sep-07 14:00N 22°45' E 113°39'2 4.9
2017-Sep-07 13:30N 22°47' E 113°38'3 5.1
2017-Sep-07 13:00N 22°49' E 113°36'3 5.3
2017-Sep-07 12:31N 22°51' E 113°34'2 4.0
2017-Sep-07 12:00N 22°52' E 113°33'0 0.0
2017-Sep-07 11:29N 22°52' E 113°33'0 0.0
2017-Sep-07 10:59N 22°52' E 113°33'0 0.0
2017-Sep-07 10:29N 22°52' E 113°33'0 0.0
2017-Sep-07 09:53N 22°52' E 113°33'0 0.0
2017-Sep-07 09:26N 22°52' E 113°33'0 0.0
2017-Sep-07 08:59N 22°52' E 113°33'0 0.0
2017-Sep-07 08:29N 22°52' E 113°33'0 0.0
2017-Sep-07 07:59N 22°52' E 113°33'0 0.0
2017-Sep-07 07:29N 22°52' E 113°33'0 0.0
2017-Sep-07 06:59N 22°52' E 113°33'0 0.0
2017-Sep-07 06:29N 22°52' E 113°33'0 0.0
2017-Sep-07 05:59N 22°52' E 113°33'0 0.0
2017-Sep-07 05:29N 22°52' E 113°33'0 0.0
2017-Sep-07 04:59N 22°52' E 113°33'0 0.0
2017-Sep-07 04:29N 22°52' E 113°33'0 0.0
2017-Sep-07 03:59N 22°52' E 113°33'0 0.0
2017-Sep-07 03:26N 22°52' E 113°33'0 0.0
2017-Sep-07 02:59N 22°52' E 113°33'0 0.0
2017-Sep-07 02:29N 22°52' E 113°33'0 0.0
2017-Sep-07 01:59N 22°52' E 113°33'0 0.0
2017-Sep-07 01:29N 22°52' E 113°33'0 0.0
2017-Sep-07 00:58N 22°52' E 113°33'0 0.0
2017-Sep-07 00:29N 22°52' E 113°33'0 0.0
2017-Sep-06 23:59N 22°52' E 113°33'0 0.0
2017-Sep-06 23:29N 22°52' E 113°33'0 0.0
2017-Sep-06 22:59N 22°52' E 113°33'0 0.0
2017-Sep-06 22:29N 22°52' E 113°33'0 0.0
2017-Sep-06 21:59N 22°52' E 113°33'0 0.0
2017-Sep-06 21:29N 22°52' E 113°33'0 0.0
2017-Sep-06 20:59N 22°52' E 113°33'0 0.0
2017-Sep-06 20:29N 22°52' E 113°33'0 0.0
2017-Sep-06 19:59N 22°52' E 113°33'0 0.0
2017-Sep-06 19:29N 22°52' E 113°33'0 0.0
2017-Sep-06 18:59N 22°52' E 113°33'0 0.0
2017-Sep-06 18:29N 22°52' E 113°33'0 0.0
2017-Sep-06 17:59N 22°52' E 113°33'0 0.0
2017-Sep-06 17:29N 22°52' E 113°33'0 0.0
2017-Sep-06 16:59N 22°52' E 113°33'0 0.0
2017-Sep-06 16:29N 22°52' E 113°33'0 0.0
2017-Sep-06 15:59N 22°52' E 113°33'0 0.0
2017-Sep-06 15:29N 22°52' E 113°33'0 0.0
2017-Sep-06 14:59N 22°52' E 113°33'0 0.0
2017-Sep-06 14:29N 22°52' E 113°33'0 0.0
2017-Sep-06 13:59N 22°52' E 113°33'0 0.0
2017-Sep-06 13:29N 22°52' E 113°33'0 0.0
2017-Sep-06 12:59N 22°52' E 113°33'0 0.0
2017-Sep-06 12:26N 22°52' E 113°33'0 0.0
2017-Sep-06 11:59N 22°52' E 113°33'0 0.0
2017-Sep-06 11:29N 22°52' E 113°33'0 0.0
2017-Sep-06 10:59N 22°52' E 113°33'0 0.0
2017-Sep-06 10:29N 22°52' E 113°33'0 0.0
2017-Sep-06 09:59N 22°52' E 113°33'0 0.0
2017-Sep-06 09:29N 22°52' E 113°33'0 0.0
2017-Sep-06 08:56N 22°52' E 113°33'0 0.0
2017-Sep-06 07:44N 22°52' E 113°33'0 0.0
2017-Sep-06 07:30N 22°52' E 113°33'0 0.0
2017-Sep-06 06:59N 22°52' E 113°33'0 0.0
2017-Sep-06 06:29N 22°52' E 113°33'0 0.0
2017-Sep-06 05:59N 22°52' E 113°33'0 0.0
2017-Sep-06 05:29N 22°52' E 113°33'0 0.0
2017-Sep-06 04:59N 22°52' E 113°33'0 0.0
2017-Sep-06 04:26N 22°52' E 113°33'0 0.0
2017-Sep-06 03:59N 22°52' E 113°33'0 0.0
2017-Sep-06 03:29N 22°52' E 113°33'0 0.0
2017-Sep-06 02:47N 22°52' E 113°33'0 0.0
2017-Sep-06 02:29N 22°52' E 113°33'0 0.0
2017-Sep-06 01:59N 22°52' E 113°33'0 0.0
2017-Sep-06 01:29N 22°52' E 113°33'0 0.0
2017-Sep-06 00:59N 22°52' E 113°33'0 0.0
2017-Sep-06 00:29N 22°52' E 113°33'0 0.0
2017-Sep-05 23:59N 22°52' E 113°33'0 0.0
2017-Sep-05 23:29N 22°52' E 113°33'0 0.0
2017-Sep-05 22:59N 22°52' E 113°33'0 0.0
2017-Sep-05 22:29N 22°52' E 113°33'0 0.0
2017-Sep-05 21:59N 22°52' E 113°33'0 0.0
2017-Sep-05 21:29N 22°52' E 113°33'0 0.0
2017-Sep-05 20:59N 22°52' E 113°33'0 0.0
2017-Sep-05 20:29N 22°52' E 113°33'0 0.0
2017-Sep-05 19:59N 22°52' E 113°33'0 0.0
2017-Sep-05 19:26N 22°52' E 113°33'0 0.0
2017-Sep-05 18:59N 22°52' E 113°33'0 0.0
2017-Sep-05 18:29N 22°52' E 113°33'0 0.0
2017-Sep-05 17:59N 22°52' E 113°33'0 0.0
2017-Sep-05 17:29N 22°52' E 113°33'0 0.0
2017-Sep-05 16:59N 22°52' E 113°33'0 0.0
2017-Sep-05 16:29N 22°52' E 113°33'0 0.0
2017-Sep-05 15:59N 22°52' E 113°33'0 0.0
2017-Sep-05 15:29N 22°52' E 113°33'0 0.0
2017-Sep-05 14:59N 22°52' E 113°33'0 0.0
2017-Sep-05 14:29N 22°52' E 113°33'0 0.0
2017-Sep-05 13:59N 22°52' E 113°33'0 0.0
2017-Sep-05 13:26N 22°52' E 113°33'0 0.0
2017-Sep-05 12:56N 22°52' E 113°33'0 0.0
2017-Sep-05 12:29N 22°52' E 113°33'0 0.0
2017-Sep-05 11:59N 22°52' E 113°33'0 0.0
2017-Sep-05 11:29N 22°52' E 113°33'0 0.0
2017-Sep-05 10:59N 22°52' E 113°33'0 0.0
2017-Sep-05 10:29N 22°52' E 113°33'0 0.0
2017-Sep-05 09:59N 22°52' E 113°33'0 0.0
2017-Sep-05 09:29N 22°52' E 113°33'0 0.0
2017-Sep-05 08:59N 22°52' E 113°33'0 0.0
2017-Sep-05 08:29N 22°52' E 113°33'0 0.0
2017-Sep-05 07:53N 22°52' E 113°33'0 0.0
2017-Sep-05 07:29N 22°52' E 113°33'0 0.0
2017-Sep-05 06:59N 22°52' E 113°33'0 0.0
2017-Sep-05 06:29N 22°52' E 113°33'0 0.0
2017-Sep-05 05:59N 22°52' E 113°33'0 0.0
2017-Sep-05 05:29N 22°52' E 113°33'0 0.0
2017-Sep-05 04:59N 22°52' E 113°33'0 0.0
2017-Sep-05 04:29N 22°52' E 113°33'0 0.0
2017-Sep-05 03:59N 22°52' E 113°33'0 0.0
2017-Sep-05 03:29N 22°52' E 113°33'0 0.0
2017-Sep-05 02:59N 22°52' E 113°33'0 0.0
2017-Sep-05 02:29N 22°52' E 113°33'0 0.0
2017-Sep-05 01:59N 22°52' E 113°33'0 0.0
2017-Sep-05 01:29N 22°52' E 113°33'0 0.0
2017-Sep-05 00:59N 22°52' E 113°33'0 0.0
2017-Sep-05 00:29N 22°52' E 113°33'0 0.0
2017-Sep-04 23:59N 22°52' E 113°33'0 0.0
2017-Sep-04 23:29N 22°52' E 113°33'0 0.0
2017-Sep-04 22:59N 22°52' E 113°33'0 0.0
2017-Sep-04 22:29N 22°52' E 113°33'0 0.0
2017-Sep-04 21:59N 22°52' E 113°33'0 0.0
2017-Sep-04 21:29N 22°52' E 113°33'0 0.0
2017-Sep-04 20:59N 22°52' E 113°33'0 0.0
2017-Sep-04 20:29N 22°52' E 113°33'0 0.0
2017-Sep-04 19:59N 22°52' E 113°33'0 0.0
2017-Sep-04 19:29N 22°52' E 113°33'0 0.0
2017-Sep-04 18:59N 22°52' E 113°33'0 0.0
2017-Sep-04 18:29N 22°52' E 113°33'0 0.0
2017-Sep-04 17:59N 22°52' E 113°33'0 0.0
2017-Sep-04 17:29N 22°52' E 113°33'0 0.0
2017-Sep-04 16:59N 22°52' E 113°33'0 0.0
2017-Sep-04 16:29N 22°52' E 113°33'0 0.0
2017-Sep-04 15:56N 22°52' E 113°33'0 0.0
2017-Sep-04 15:29N 22°52' E 113°33'0 0.0
2017-Sep-04 14:59N 22°52' E 113°33'0 0.0
2017-Sep-04 14:29N 22°52' E 113°33'0 0.0
2017-Sep-04 13:59N 22°52' E 113°33'0 0.0
2017-Sep-04 13:29N 22°52' E 113°33'0 0.0
2017-Sep-04 12:59N 22°52' E 113°33'0 0.0
2017-Sep-04 12:29N 22°52' E 113°33'0 0.0
2017-Sep-04 11:59N 22°52' E 113°33'0 0.0
2017-Sep-04 11:29N 22°52' E 113°33'0 0.0
2017-Sep-03 14:56N 22°52' E 113°32'0 0.0
2017-Sep-03 10:32N 22°52' E 113°32'0 0.4
2017-Sep-03 10:23N 22°52' E 113°32'0 0.0
2017-Sep-03 09:50N 22°52' E 113°32'0 0.0
2017-Sep-02 23:47N 22°52' E 113°32'0 0.0
2017-Sep-02 16:02N 22°52' E 113°32'0 0.1
2017-Sep-02 15:59N 22°52' E 113°32'0 0.0
2017-Sep-02 15:26N 22°52' E 113°32'0 0.0
2017-Sep-02 14:59N 22°52' E 113°32'0 0.0
2017-Sep-02 14:29N 22°52' E 113°32'0 0.0
2017-Sep-02 13:59N 22°52' E 113°32'0 0.0
2017-Sep-02 13:14N 22°52' E 113°32'0 0.0
2017-Sep-02 12:59N 22°52' E 113°32'0 0.0
2017-Sep-02 10:05N 22°52' E 113°32'0 0.0
2017-Sep-02 09:53N 22°52' E 113°32'0 0.1
2017-Sep-02 08:44N 22°52' E 113°32'0 0.0
2017-Sep-02 08:23N 22°52' E 113°32'0 0.0
2017-Sep-01 21:08N 22°52' E 113°32'0 0.0
2017-Sep-01 20:50N 22°52' E 113°32'0 0.0
2017-Sep-01 14:47N 22°52' E 113°32'0 0.6
2017-Sep-01 14:29N 22°52' E 113°33'0 0.8
2017-Sep-01 13:59N 22°52' E 113°33'2 3.8
2017-Sep-01 13:29N 22°51' E 113°34'3 5.0
2017-Sep-01 12:59N 22°49' E 113°36'3 5.7
2017-Sep-01 12:29N 22°47' E 113°38'3 5.9
2017-Sep-01 11:56N 22°44' E 113°40'4 5.4
2017-Sep-01 11:17N 22°40' E 113°41'3 6.3
2017-Sep-01 10:53N 22°38' E 113°42'3 5.6
2017-Sep-01 10:23N 22°35' E 113°43'4 0.1
2017-Aug-30 13:39N 22°32' E 113°44'3 5.1
2017-Aug-30 13:06N 22°35' E 113°43'1 5.1
2017-Aug-30 12:59N 22°35' E 113°43'3 5.1
2017-Aug-30 12:29N 22°38' E 113°42'2 5.0
2017-Aug-30 11:59N 22°40' E 113°41'1 2.4
2017-Aug-30 11:30N 22°41' E 113°41'1 2.5
2017-Aug-30 11:00N 22°42' E 113°41'3 5.6
2017-Aug-30 10:30N 22°45' E 113°39'3 6.0
2017-Aug-30 10:01N 22°47' E 113°37'3 6.0
2017-Aug-30 09:30N 22°49' E 113°35'3 5.7
2017-Aug-30 09:00N 22°52' E 113°33'1 1.9
2017-Aug-30 08:30N 22°52' E 113°33'0 0.0
2017-Aug-30 08:00N 22°52' E 113°33'0 0.0
2017-Aug-30 07:31N 22°52' E 113°33'0 0.0
2017-Aug-30 07:01N 22°52' E 113°33'0 0.0
2017-Aug-30 06:31N 22°52' E 113°33'0 0.1
2017-Aug-30 06:00N 22°52' E 113°33'0 0.2
2017-Aug-30 05:23N 22°52' E 113°32'0 0.2
2017-Aug-30 04:59N 22°52' E 113°32'0 0.0
2017-Aug-30 04:30N 22°52' E 113°32'0 0.3
2017-Aug-30 04:00N 22°52' E 113°33'0 0.0
2017-Aug-30 03:31N 22°52' E 113°33'0 0.0
2017-Aug-30 03:01N 22°52' E 113°33'0 0.0
2017-Aug-30 02:31N 22°52' E 113°33'0 0.0
2017-Aug-30 02:01N 22°52' E 113°33'0 0.0
2017-Aug-30 01:31N 22°52' E 113°33'0 0.0
2017-Aug-30 01:01N 22°52' E 113°33'0 0.0
2017-Aug-30 00:31N 22°52' E 113°33'0 0.0
2017-Aug-30 00:00N 22°52' E 113°33'0 0.0
2017-Aug-29 23:31N 22°52' E 113°33'0 0.0
2017-Aug-29 23:00N 22°52' E 113°33'0 0.0
2017-Aug-29 22:30N 22°52' E 113°33'0 0.0
2017-Aug-29 22:00N 22°52' E 113°33'0 0.0
2017-Aug-29 21:31N 22°52' E 113°33'0 0.0
2017-Aug-29 21:01N 22°52' E 113°33'0 0.0
2017-Aug-29 20:30N 22°52' E 113°33'0 0.0
2017-Aug-29 20:00N 22°52' E 113°33'0 0.0
2017-Aug-29 19:31N 22°52' E 113°33'0 0.0
2017-Aug-29 19:01N 22°52' E 113°33'0 0.0
2017-Aug-29 18:30N 22°52' E 113°33'0 0.0
2017-Aug-29 18:01N 22°52' E 113°33'0 0.0
2017-Aug-29 17:30N 22°52' E 113°33'0 0.0
2017-Aug-29 17:01N 22°52' E 113°33'0 0.0
2017-Aug-29 16:31N 22°52' E 113°33'0 0.0
2017-Aug-29 16:00N 22°52' E 113°33'0 0.0
2017-Aug-29 15:30N 22°52' E 113°33'0 0.0
2017-Aug-29 15:01N 22°52' E 113°33'0 0.0
2017-Aug-29 14:31N 22°52' E 113°33'0 0.0
2017-Aug-29 14:01N 22°52' E 113°33'0 0.0
2017-Aug-29 13:30N 22°52' E 113°33'0 0.0
2017-Aug-29 13:00N 22°52' E 113°33'0 0.0
2017-Aug-29 12:31N 22°52' E 113°33'0 0.0
2017-Aug-29 12:01N 22°52' E 113°33'0 0.0
2017-Aug-29 11:31N 22°52' E 113°33'0 0.0
2017-Aug-29 11:00N 22°52' E 113°33'0 0.0
2017-Aug-29 10:31N 22°52' E 113°33'0 0.0
2017-Aug-29 10:01N 22°52' E 113°33'0 0.1
2017-Aug-29 09:31N 22°52' E 113°33'0 0.2
2017-Aug-29 09:00N 22°52' E 113°33'2 4.0
2017-Aug-29 08:31N 22°51' E 113°34'5 9.1
2017-Aug-29 08:00N 22°48' E 113°37'5 9.6
2017-Aug-29 07:30N 22°44' E 113°40'511.1
2017-Aug-29 07:01N 22°38' E 113°42'  
Track history (hours):
 
Tides and Currents Weather Stations Pressure Air Temp Water Temp Dewpoint Dewpoint Depression Visibility Wind Speed Wind Dir Waves Ship Positions

De Sui

Last reported at 2017-Sep-07 17:12 UTC. Time now 2017-Oct-19 15:09 UTC.
Position N 22°31' E 113°44'.
Warning: this ship's position is 41 days out of date.

Length 65 m; draft 4.8 m.

Type: Tug. MMSI: 413070000.

Date/timePositionNaut miles runAvg speedWind from/ knotsBaromVisibWave heightAir tempDewpointWater temp
2017-Sep-07 17:12N 22°31' E 113°44'3 5.0
2017-Sep-07 16:35N 22°34' E 113°43'0 4.6
2017-Sep-07 16:30N 22°34' E 113°43'3 5.0
2017-Sep-07 15:59N 22°36' E 113°42'3 5.3
2017-Sep-07 15:31N 22°39' E 113°42'2 4.5
2017-Sep-07 15:00N 22°41' E 113°41'2 4.1
2017-Sep-07 14:30N 22°43' E 113°40'2 4.1
2017-Sep-07 14:00N 22°45' E 113°39'2 4.9
2017-Sep-07 13:30N 22°47' E 113°38'3 5.1
2017-Sep-07 13:00N 22°49' E 113°36'3 5.3
2017-Sep-07 12:31N 22°51' E 113°34'2 4.0
2017-Sep-07 12:00N 22°52' E 113°33'0 0.0
2017-Sep-07 11:29N 22°52' E 113°33'0 0.0
2017-Sep-07 10:59N 22°52' E 113°33'0 0.0
2017-Sep-07 10:29N 22°52' E 113°33'0 0.0
2017-Sep-07 09:53N 22°52' E 113°33'0 0.0
2017-Sep-07 09:26N 22°52' E 113°33'0 0.0
2017-Sep-07 08:59N 22°52' E 113°33'0 0.0
2017-Sep-07 08:29N 22°52' E 113°33'0 0.0
2017-Sep-07 07:59N 22°52' E 113°33'0 0.0
2017-Sep-07 07:29N 22°52' E 113°33'0 0.0
2017-Sep-07 06:59N 22°52' E 113°33'0 0.0
2017-Sep-07 06:29N 22°52' E 113°33'0 0.0
2017-Sep-07 05:59N 22°52' E 113°33'0 0.0
2017-Sep-07 05:29N 22°52' E 113°33'0 0.0
2017-Sep-07 04:59N 22°52' E 113°33'0 0.0
2017-Sep-07 04:29N 22°52' E 113°33'0 0.0
2017-Sep-07 03:59N 22°52' E 113°33'0 0.0
2017-Sep-07 03:26N 22°52' E 113°33'0 0.0
2017-Sep-07 02:59N 22°52' E 113°33'0 0.0
2017-Sep-07 02:29N 22°52' E 113°33'0 0.0
2017-Sep-07 01:59N 22°52' E 113°33'0 0.0
2017-Sep-07 01:29N 22°52' E 113°33'0 0.0
2017-Sep-07 00:58N 22°52' E 113°33'0 0.0
2017-Sep-07 00:29N 22°52' E 113°33'0 0.0
2017-Sep-06 23:59N 22°52' E 113°33'0 0.0
2017-Sep-06 23:29N 22°52' E 113°33'0 0.0
2017-Sep-06 22:59N 22°52' E 113°33'0 0.0
2017-Sep-06 22:29N 22°52' E 113°33'0 0.0
2017-Sep-06 21:59N 22°52' E 113°33'0 0.0
2017-Sep-06 21:29N 22°52' E 113°33'0 0.0
2017-Sep-06 20:59N 22°52' E 113°33'0 0.0
2017-Sep-06 20:29N 22°52' E 113°33'0 0.0
2017-Sep-06 19:59N 22°52' E 113°33'0 0.0
2017-Sep-06 19:29N 22°52' E 113°33'0 0.0
2017-Sep-06 18:59N 22°52' E 113°33'0 0.0
2017-Sep-06 18:29N 22°52' E 113°33'0 0.0
2017-Sep-06 17:59N 22°52' E 113°33'0 0.0
2017-Sep-06 17:29N 22°52' E 113°33'0 0.0
2017-Sep-06 16:59N 22°52' E 113°33'0 0.0
2017-Sep-06 16:29N 22°52' E 113°33'0 0.0
2017-Sep-06 15:59N 22°52' E 113°33'0 0.0
2017-Sep-06 15:29N 22°52' E 113°33'0 0.0
2017-Sep-06 14:59N 22°52' E 113°33'0 0.0
2017-Sep-06 14:29N 22°52' E 113°33'0 0.0
2017-Sep-06 13:59N 22°52' E 113°33'0 0.0
2017-Sep-06 13:29N 22°52' E 113°33'0 0.0
2017-Sep-06 12:59N 22°52' E 113°33'0 0.0
2017-Sep-06 12:26N 22°52' E 113°33'0 0.0
2017-Sep-06 11:59N 22°52' E 113°33'0 0.0
2017-Sep-06 11:29N 22°52' E 113°33'0 0.0
2017-Sep-06 10:59N 22°52' E 113°33'0 0.0
2017-Sep-06 10:29N 22°52' E 113°33'0 0.0
2017-Sep-06 09:59N 22°52' E 113°33'0 0.0
2017-Sep-06 09:29N 22°52' E 113°33'0 0.0
2017-Sep-06 08:56N 22°52' E 113°33'0 0.0
2017-Sep-06 07:44N 22°52' E 113°33'0 0.0
2017-Sep-06 07:30N 22°52' E 113°33'0 0.0
2017-Sep-06 06:59N 22°52' E 113°33'0 0.0
2017-Sep-06 06:29N 22°52' E 113°33'0 0.0
2017-Sep-06 05:59N 22°52' E 113°33'0 0.0
2017-Sep-06 05:29N 22°52' E 113°33'0 0.0
2017-Sep-06 04:59N 22°52' E 113°33'0 0.0
2017-Sep-06 04:26N 22°52' E 113°33'0 0.0
2017-Sep-06 03:59N 22°52' E 113°33'0 0.0
2017-Sep-06 03:29N 22°52' E 113°33'0 0.0
2017-Sep-06 02:47N 22°52' E 113°33'0 0.0
2017-Sep-06 02:29N 22°52' E 113°33'0 0.0
2017-Sep-06 01:59N 22°52' E 113°33'0 0.0
2017-Sep-06 01:29N 22°52' E 113°33'0 0.0
2017-Sep-06 00:59N 22°52' E 113°33'0 0.0
2017-Sep-06 00:29N 22°52' E 113°33'0 0.0
2017-Sep-05 23:59N 22°52' E 113°33'0 0.0
2017-Sep-05 23:29N 22°52' E 113°33'0 0.0
2017-Sep-05 22:59N 22°52' E 113°33'0 0.0
2017-Sep-05 22:29N 22°52' E 113°33'0 0.0
2017-Sep-05 21:59N 22°52' E 113°33'0 0.0
2017-Sep-05 21:29N 22°52' E 113°33'0 0.0
2017-Sep-05 20:59N 22°52' E 113°33'0 0.0
2017-Sep-05 20:29N 22°52' E 113°33'0 0.0
2017-Sep-05 19:59N 22°52' E 113°33'0 0.0
2017-Sep-05 19:26N 22°52' E 113°33'0 0.0
2017-Sep-05 18:59N 22°52' E 113°33'0 0.0
2017-Sep-05 18:29N 22°52' E 113°33'0 0.0
2017-Sep-05 17:59N 22°52' E 113°33'0 0.0
2017-Sep-05 17:29N 22°52' E 113°33'0 0.0
2017-Sep-05 16:59N 22°52' E 113°33'0 0.0
2017-Sep-05 16:29N 22°52' E 113°33'0 0.0
2017-Sep-05 15:59N 22°52' E 113°33'0 0.0
2017-Sep-05 15:29N 22°52' E 113°33'0 0.0
2017-Sep-05 14:59N 22°52' E 113°33'0 0.0
2017-Sep-05 14:29N 22°52' E 113°33'0 0.0
2017-Sep-05 13:59N 22°52' E 113°33'0 0.0
2017-Sep-05 13:26N 22°52' E 113°33'0 0.0
2017-Sep-05 12:56N 22°52' E 113°33'0 0.0
2017-Sep-05 12:29N 22°52' E 113°33'0 0.0
2017-Sep-05 11:59N 22°52' E 113°33'0 0.0
2017-Sep-05 11:29N 22°52' E 113°33'0 0.0
2017-Sep-05 10:59N 22°52' E 113°33'0 0.0
2017-Sep-05 10:29N 22°52' E 113°33'0 0.0
2017-Sep-05 09:59N 22°52' E 113°33'0 0.0
2017-Sep-05 09:29N 22°52' E 113°33'0 0.0
2017-Sep-05 08:59N 22°52' E 113°33'0 0.0
2017-Sep-05 08:29N 22°52' E 113°33'0 0.0
2017-Sep-05 07:53N 22°52' E 113°33'0 0.0
2017-Sep-05 07:29N 22°52' E 113°33'0 0.0
2017-Sep-05 06:59N 22°52' E 113°33'0 0.0
2017-Sep-05 06:29N 22°52' E 113°33'0 0.0
2017-Sep-05 05:59N 22°52' E 113°33'0 0.0
2017-Sep-05 05:29N 22°52' E 113°33'0 0.0
2017-Sep-05 04:59N 22°52' E 113°33'0 0.0
2017-Sep-05 04:29N 22°52' E 113°33'0 0.0
2017-Sep-05 03:59N 22°52' E 113°33'0 0.0
2017-Sep-05 03:29N 22°52' E 113°33'0 0.0
2017-Sep-05 02:59N 22°52' E 113°33'0 0.0
2017-Sep-05 02:29N 22°52' E 113°33'0 0.0
2017-Sep-05 01:59N 22°52' E 113°33'0 0.0
2017-Sep-05 01:29N 22°52' E 113°33'0 0.0
2017-Sep-05 00:59N 22°52' E 113°33'0 0.0
2017-Sep-05 00:29N 22°52' E 113°33'0 0.0
2017-Sep-04 23:59N 22°52' E 113°33'0 0.0
2017-Sep-04 23:29N 22°52' E 113°33'0 0.0
2017-Sep-04 22:59N 22°52' E 113°33'0 0.0
2017-Sep-04 22:29N 22°52' E 113°33'0 0.0
2017-Sep-04 21:59N 22°52' E 113°33'0 0.0
2017-Sep-04 21:29N 22°52' E 113°33'0 0.0
2017-Sep-04 20:59N 22°52' E 113°33'0 0.0
2017-Sep-04 20:29N 22°52' E 113°33'0 0.0
2017-Sep-04 19:59N 22°52' E 113°33'0 0.0
2017-Sep-04 19:29N 22°52' E 113°33'0 0.0
2017-Sep-04 18:59N 22°52' E 113°33'0 0.0
2017-Sep-04 18:29N 22°52' E 113°33'0 0.0
2017-Sep-04 17:59N 22°52' E 113°33'0 0.0
2017-Sep-04 17:29N 22°52' E 113°33'0 0.0
2017-Sep-04 16:59N 22°52' E 113°33'0 0.0
2017-Sep-04 16:29N 22°52' E 113°33'0 0.0
2017-Sep-04 15:56N 22°52' E 113°33'0 0.0
2017-Sep-04 15:29N 22°52' E 113°33'0 0.0
2017-Sep-04 14:59N 22°52' E 113°33'0 0.0
2017-Sep-04 14:29N 22°52' E 113°33'0 0.0
2017-Sep-04 13:59N 22°52' E 113°33'0 0.0
2017-Sep-04 13:29N 22°52' E 113°33'0 0.0
2017-Sep-04 12:59N 22°52' E 113°33'0 0.0
2017-Sep-04 12:29N 22°52' E 113°33'0 0.0
2017-Sep-04 11:59N 22°52' E 113°33'0 0.0
2017-Sep-04 11:29N 22°52' E 113°33'0 0.0
2017-Sep-03 14:56N 22°52' E 113°32'0 0.0
2017-Sep-03 10:32N 22°52' E 113°32'0 0.4
2017-Sep-03 10:23N 22°52' E 113°32'0 0.0
2017-Sep-03 09:50N 22°52' E 113°32'0 0.0
2017-Sep-02 23:47N 22°52' E 113°32'0 0.0
2017-Sep-02 16:02N 22°52' E 113°32'0 0.1
2017-Sep-02 15:59N 22°52' E 113°32'0 0.0
2017-Sep-02 15:26N 22°52' E 113°32'0 0.0
2017-Sep-02 14:59N 22°52' E 113°32'0 0.0
2017-Sep-02 14:29N 22°52' E 113°32'0 0.0
2017-Sep-02 13:59N 22°52' E 113°32'0 0.0
2017-Sep-02 13:14N 22°52' E 113°32'0 0.0
2017-Sep-02 12:59N 22°52' E 113°32'0 0.0
2017-Sep-02 10:05N 22°52' E 113°32'0 0.0
2017-Sep-02 09:53N 22°52' E 113°32'0 0.1
2017-Sep-02 08:44N 22°52' E 113°32'0 0.0
2017-Sep-02 08:23N 22°52' E 113°32'0 0.0
2017-Sep-01 21:08N 22°52' E 113°32'0 0.0
2017-Sep-01 20:50N 22°52' E 113°32'0 0.0
2017-Sep-01 14:47N 22°52' E 113°32'0 0.6
2017-Sep-01 14:29N 22°52' E 113°33'0 0.8
2017-Sep-01 13:59N 22°52' E 113°33'2 3.8
2017-Sep-01 13:29N 22°51' E 113°34'3 5.0
2017-Sep-01 12:59N 22°49' E 113°36'3 5.7
2017-Sep-01 12:29N 22°47' E 113°38'3 5.9
2017-Sep-01 11:56N 22°44' E 113°40'4 5.4
2017-Sep-01 11:17N 22°40' E 113°41'3 6.3
2017-Sep-01 10:53N 22°38' E 113°42'3 5.6
2017-Sep-01 10:23N 22°35' E 113°43'4 0.1
2017-Aug-30 13:39N 22°32' E 113°44'3 5.1
2017-Aug-30 13:06N 22°35' E 113°43'1 5.1
2017-Aug-30 12:59N 22°35' E 113°43'3 5.1
2017-Aug-30 12:29N 22°38' E 113°42'2 5.0
2017-Aug-30 11:59N 22°40' E 113°41'1 2.4
2017-Aug-30 11:30N 22°41' E 113°41'1 2.5
2017-Aug-30 11:00N 22°42' E 113°41'3 5.6
2017-Aug-30 10:30N 22°45' E 113°39'3 6.0
2017-Aug-30 10:01N 22°47' E 113°37'3 6.0
2017-Aug-30 09:30N 22°49' E 113°35'3 5.7
2017-Aug-30 09:00N 22°52' E 113°33'1 1.9
2017-Aug-30 08:30N 22°52' E 113°33'0 0.0
2017-Aug-30 08:00N 22°52' E 113°33'0 0.0
2017-Aug-30 07:31N 22°52' E 113°33'0 0.0
2017-Aug-30 07:01N 22°52' E 113°33'0 0.0
2017-Aug-30 06:31N 22°52' E 113°33'0 0.1
2017-Aug-30 06:00N 22°52' E 113°33'0 0.2
2017-Aug-30 05:23N 22°52' E 113°32'0 0.2
2017-Aug-30 04:59N 22°52' E 113°32'0 0.0
2017-Aug-30 04:30N 22°52' E 113°32'0 0.3
2017-Aug-30 04:00N 22°52' E 113°33'0 0.0
2017-Aug-30 03:31N 22°52' E 113°33'0 0.0
2017-Aug-30 03:01N 22°52' E 113°33'0 0.0
2017-Aug-30 02:31N 22°52' E 113°33'0 0.0
2017-Aug-30 02:01N 22°52' E 113°33'0 0.0
2017-Aug-30 01:31N 22°52' E 113°33'0 0.0
2017-Aug-30 01:01N 22°52' E 113°33'0 0.0
2017-Aug-30 00:31N 22°52' E 113°33'0 0.0
2017-Aug-30 00:00N 22°52' E 113°33'0 0.0
2017-Aug-29 23:31N 22°52' E 113°33'0 0.0
2017-Aug-29 23:00N 22°52' E 113°33'0 0.0
2017-Aug-29 22:30N 22°52' E 113°33'0 0.0
2017-Aug-29 22:00N 22°52' E 113°33'0 0.0
2017-Aug-29 21:31N 22°52' E 113°33'0 0.0
2017-Aug-29 21:01N 22°52' E 113°33'0 0.0
2017-Aug-29 20:30N 22°52' E 113°33'0 0.0
2017-Aug-29 20:00N 22°52' E 113°33'0 0.0
2017-Aug-29 19:31N 22°52' E 113°33'0 0.0
2017-Aug-29 19:01N 22°52' E 113°33'0 0.0
2017-Aug-29 18:30N 22°52' E 113°33'0 0.0
2017-Aug-29 18:01N 22°52' E 113°33'0 0.0
2017-Aug-29 17:30N 22°52' E 113°33'0 0.0
2017-Aug-29 17:01N 22°52' E 113°33'0 0.0
2017-Aug-29 16:31N 22°52' E 113°33'0 0.0
2017-Aug-29 16:00N 22°52' E 113°33'0 0.0
2017-Aug-29 15:30N 22°52' E 113°33'0 0.0
2017-Aug-29 15:01N 22°52' E 113°33'0 0.0
2017-Aug-29 14:31N 22°52' E 113°33'0 0.0
2017-Aug-29 14:01N 22°52' E 113°33'0 0.0
2017-Aug-29 13:30N 22°52' E 113°33'0 0.0
2017-Aug-29 13:00N 22°52' E 113°33'0 0.0
2017-Aug-29 12:31N 22°52' E 113°33'0 0.0
2017-Aug-29 12:01N 22°52' E 113°33'0 0.0
2017-Aug-29 11:31N 22°52' E 113°33'0 0.0
2017-Aug-29 11:00N 22°52' E 113°33'0 0.0
2017-Aug-29 10:31N 22°52' E 113°33'0 0.0
2017-Aug-29 10:01N 22°52' E 113°33'0 0.1
2017-Aug-29 09:31N 22°52' E 113°33'0 0.2
2017-Aug-29 09:00N 22°52' E 113°33'2 4.0
2017-Aug-29 08:31N 22°51' E 113°34'5 9.1
2017-Aug-29 08:00N 22°48' E 113°37'5 9.6
2017-Aug-29 07:30N 22°44' E 113°40'511.1
2017-Aug-29 07:01N 22°38' E 113°42'  

Dump ship's entire track history